Time;durP1;ratioP1;P1;durP2;ratioP2;P2;SDS_P1;SDS_P2;PMS_P1;PMS_P2;Temp;Humidity;BMP_temperature;BMP_pressure;BME280_temperature;BME280_humidity;BME280_pressure;Samples;Min_cycle;Max_cycle;Signal;HPM_P1;HPM_P2
2022/05/09 00:00:37;;;;;;;;;;;;;;;13.23;55.16;102136.91;5087459;28;19936;-78
2022/05/09 00:03:02;;;;;;;;;;;;;;;13.29;55.01;102136.00;5066591;28;21207;-78
2022/05/09 00:05:28;;;;;;;;;;;;;;;13.28;54.96;102143.84;5083599;28;19919;-78
2022/05/09 00:07:54;;;;;;;;;;;;;;;13.29;54.83;102143.81;5086343;28;19924;-78
2022/05/09 00:10:20;;;;;;;;;;;;;;;13.38;54.77;102138.50;5084750;28;19935;-78
2022/05/09 00:12:46;;;;;;;;;;;;;;;13.38;55.15;102141.13;5086149;28;19924;-77
2022/05/09 00:15:11;;;;;;;;;;;;;;;13.40;54.64;102133.28;5064739;28;19939;-77
2022/05/09 00:17:37;;;;;;;;;;;;;;;13.38;54.65;102135.03;5063456;28;21474;-77
2022/05/09 00:20:06;;;;;;;;;;;;;;;13.33;54.84;102131.59;5067330;28;20456;-77
2022/05/09 00:22:32;;;;;;;;;;;;;;;13.29;55.20;102135.13;5064583;28;19935;-77
2022/05/09 00:25:00;;;;;;;;;;;;;;;13.19;55.04;102137.00;5082925;28;19973;-78
2022/05/09 00:27:25;;;;;;;;;;;;;;;13.18;55.11;102137.84;5083239;28;19930;-76
2022/05/09 00:29:51;;;;;;;;;;;;;;;13.10;55.58;102140.56;5067662;28;19936;-75
2022/05/09 00:32:16;;;;;;;;;;;;;;;13.10;55.65;102135.34;5086412;28;20553;-75
2022/05/09 00:34:41;;;;;;;;;;;;;;;13.06;55.56;102135.38;5080009;28;19936;-75
2022/05/09 00:37:06;;;;;;;;;;;;;;;13.04;55.36;102131.91;5085399;28;20523;-74
2022/05/09 00:39:33;;;;;;;;;;;;;;;13.13;55.81;102132.69;5068879;28;20533;-74
2022/05/09 00:42:12;;;;;;;;;;;;;;;13.09;56.08;102133.59;5080837;28;19928;-74
2022/05/09 00:44:38;;;;;;;;;;;;;;;13.07;56.05;102127.53;5083852;28;19943;-77
2022/05/09 00:47:03;;;;;;;;;;;;;;;13.05;56.32;102129.28;5077514;28;20421;-78
2022/05/09 00:49:46;;;;;;;;;;;;;;;13.01;56.38;102129.34;5085295;28;19972;-77
2022/05/09 00:52:12;;;;;;;;;;;;;;;13.08;56.24;102126.63;5086063;28;19942;-77
2022/05/09 00:54:39;;;;;;;;;;;;;;;13.01;56.22;102134.56;5082838;28;19924;-77
2022/05/09 00:57:09;;;;;;;;;;;;;;;13.05;56.69;102128.41;5077189;28;19974;-77
2022/05/09 00:59:35;;;;;;;;;;;;;;;12.98;56.43;102124.16;5085223;28;19909;-77
2022/05/09 01:02:01;;;;;;;;;;;;;;;13.08;56.43;102123.16;5085140;28;20152;-77
2022/05/09 01:04:28;;;;;;;;;;;;;;;13.02;56.56;102120.59;5056221;28;20464;-77
2022/05/09 01:06:54;;;;;;;;;;;;;;;12.98;57.13;102117.19;5080145;28;20023;-77
2022/05/09 01:09:19;;;;;;;;;;;;;;;12.96;57.24;102124.13;5083821;28;20463;-77
2022/05/09 01:11:46;;;;;;;;;;;;;;;12.92;57.11;102119.84;5078642;28;19916;-77
2022/05/09 01:14:18;;;;;;;;;;;;;;;13.00;57.07;102120.63;5081394;28;19925;-77
2022/05/09 01:16:43;;;;;;;;;;;;;;;12.95;56.94;102118.94;5064582;28;19936;-77
2022/05/09 01:19:29;;;;;;;;;;;;;;;12.88;57.23;102114.66;5082275;28;20681;-77
2022/05/09 01:21:55;;;;;;;;;;;;;;;12.84;56.55;102121.66;5087781;28;20030;-77
2022/05/09 01:24:22;;;;;;;;;;;;;;;12.95;57.07;102118.94;5087861;28;20077;-77
2022/05/09 01:26:47;;;;;;;;;;;;;;;12.93;56.72;102116.34;5072653;28;20215;-77
2022/05/09 01:29:17;;;;;;;;;;;;;;;12.86;57.61;102116.44;5089405;28;20006;-77
2022/05/09 01:31:42;;;;;;;;;;;;;;;12.79;57.24;102106.91;5087860;28;19920;-76
2022/05/09 01:34:09;;;;;;;;;;;;;;;12.82;57.52;102112.97;5067760;28;19975;-77
2022/05/09 01:36:35;;;;;;;;;;;;;;;12.77;57.56;102111.28;5091263;28;20893;-74
2022/05/09 01:39:03;;;;;;;;;;;;;;;12.79;58.01;102109.53;5090688;28;20307;-77
2022/05/09 01:41:35;;;;;;;;;;;;;;;12.92;57.70;102108.56;5093137;28;19943;-74
2022/05/09 01:44:00;;;;;;;;;;;;;;;12.84;57.41;102111.22;5090290;28;20495;-74
2022/05/09 01:46:26;;;;;;;;;;;;;;;12.83;57.80;102109.50;5091526;28;19927;-74
2022/05/09 01:51:37;;;;;;;;;;;;;;;12.76;57.71;102112.16;5089747;28;19926;-74
2022/05/09 01:54:03;;;;;;;;;;;;;;;12.85;57.64;102110.34;5089844;28;19926;-74
2022/05/09 01:56:30;;;;;;;;;;;;;;;12.89;57.60;102117.28;5090497;28;20615;-74
2022/05/09 01:58:56;;;;;;;;;;;;;;;12.82;57.07;102109.50;5090502;28;19923;-74
2022/05/09 02:01:22;;;;;;;;;;;;;;;12.57;58.66;102114.06;5089344;28;19932;-74
2022/05/09 02:03:49;;;;;;;;;;;;;;;12.49;58.45;102114.09;5095239;28;19916;-74
2022/05/09 02:06:15;;;;;;;;;;;;;;;12.65;58.08;102122.69;5088651;28;19977;-74
2022/05/09 02:08:40;;;;;;;;;;;;;;;12.72;58.21;102129.56;5068773;28;19932;-77
2022/05/09 02:11:06;;;;;;;;;;;;;;;12.74;58.19;102120.00;5096097;28;19919;-74
2022/05/09 02:13:31;;;;;;;;;;;;;;;12.57;58.89;102125.34;5090538;28;19958;-74
2022/05/09 02:15:57;;;;;;;;;;;;;;;12.54;58.74;102124.53;5071192;28;19931;-74
2022/05/09 02:18:22;;;;;;;;;;;;;;;12.66;58.67;102125.28;5081678;28;20459;-74
2022/05/09 02:20:48;;;;;;;;;;;;;;;12.64;58.53;102124.44;5085440;28;19924;-74
2022/05/09 02:23:13;;;;;;;;;;;;;;;12.46;59.40;102129.75;5050075;28;19966;-74
2022/05/09 02:25:40;;;;;;;;;;;;;;;12.71;58.74;102129.59;5065797;28;20444;-74
2022/05/09 02:28:06;;;;;;;;;;;;;;;12.61;58.98;102124.44;5089365;28;20443;-74
2022/05/09 02:30:32;;;;;;;;;;;;;;;12.54;58.70;102127.13;5084627;28;19973;-74
2022/05/09 02:32:57;;;;;;;;;;;;;;;12.66;58.78;102124.44;5092089;28;19920;-74
2022/05/09 02:35:23;;;;;;;;;;;;;;;12.52;58.23;102121.00;5088071;28;19923;-74
2022/05/09 02:37:49;;;;;;;;;;;;;;;12.54;58.64;102122.75;5090007;28;19920;-74
2022/05/09 02:40:15;;;;;;;;;;;;;;;12.52;59.00;102123.63;5085100;28;20355;-74
2022/05/09 02:42:40;;;;;;;;;;;;;;;12.61;58.97;102123.59;5065640;28;20369;-74
2022/05/09 02:45:07;;;;;;;;;;;;;;;12.53;58.95;102120.19;5082215;28;19965;-74
2022/05/09 02:47:32;;;;;;;;;;;;;;;12.50;59.16;102120.16;5089886;28;19966;-74
2022/05/09 02:49:57;;;;;;;;;;;;;;;12.51;59.44;102122.75;5087784;28;19955;-74
2022/05/09 02:52:23;;;;;;;;;;;;;;;12.59;58.73;102120.13;5085661;28;19924;-76
2022/05/09 02:54:48;;;;;;;;;;;;;;;12.36;59.87;102122.00;5079676;28;19955;-76
2022/05/09 02:57:14;;;;;;;;;;;;;;;12.33;59.72;102114.22;5080748;28;19932;-76
2022/05/09 02:59:40;;;;;;;;;;;;;;;12.42;58.94;102121.97;5081809;28;20384;-76
2022/05/09 03:02:07;;;;;;;;;;;;;;;12.47;58.74;102125.41;5065800;28;19982;-76
2022/05/09 03:04:41;;;;;;;;;;;;;;;12.44;58.52;102123.69;5062191;28;21214;-76
2022/05/09 03:07:07;;;;;;;;;;;;;;;12.37;59.10;102118.50;5081824;28;20023;-77
2022/05/09 03:09:33;;;;;;;;;;;;;;;12.40;59.25;102123.69;5083920;28;19928;-77
2022/05/09 03:11:58;;;;;;;;;;;;;;;12.32;59.24;102121.16;5084585;28;19920;-77
2022/05/09 03:14:23;;;;;;;;;;;;;;;12.39;59.34;102114.19;5081655;28;20418;-76
2022/05/09 03:16:49;;;;;;;;;;;;;;;12.35;58.61;102120.28;5061288;28;19924;-76
2022/05/09 03:19:14;;;;;;;;;;;;;;;12.39;58.98;102122.88;5087853;28;20584;-76
2022/05/09 03:21:39;;;;;;;;;;;;;;;12.51;58.76;102111.47;5088979;28;19927;-76
2022/05/09 03:24:05;;;;;;;;;;;;;;;12.42;58.75;102112.38;5084943;28;19963;-76
2022/05/09 03:26:31;;;;;;;;;;;;;;;12.41;59.01;102109.81;5081447;28;19908;-76
2022/05/09 03:28:57;;;;;;;;;;;;;;;12.40;58.74;102113.28;5086786;28;19928;-76
2022/05/09 03:31:22;;;;;;;;;;;;;;;12.30;59.05;102106.41;5051481;28;19955;-76
2022/05/09 03:33:47;;;;;;;;;;;;;;;12.22;59.47;102110.78;5083209;28;19928;-76
2022/05/09 03:36:13;;;;;;;;;;;;;;;12.34;58.51;102111.59;5042877;28;20058;-76
2022/05/09 03:38:38;;;;;;;;;;;;;;;12.29;58.79;102105.56;5083528;28;19992;-76
2022/05/09 03:41:04;;;;;;;;;;;;;;;12.24;59.22;102104.72;5083214;28;19920;-76
2022/05/09 03:43:29;;;;;;;;;;;;;;;12.23;59.00;102107.31;5087805;28;19924;-76
2022/05/09 03:45:55;;;;;;;;;;;;;;;12.32;58.51;102112.47;5064817;28;19946;-76
2022/05/09 03:48:20;;;;;;;;;;;;;;;12.34;58.23;102108.09;5089815;28;19927;-76
2022/05/09 03:50:46;;;;;;;;;;;;;;;12.19;58.63;102105.59;5079859;28;19962;-76
2022/05/09 03:53:11;;;;;;;;;;;;;;;12.17;58.93;102104.75;5084891;28;20883;-76
2022/05/09 03:55:37;;;;;;;;;;;;;;;12.20;59.16;102105.59;5083794;28;20015;-76
2022/05/09 03:58:03;;;;;;;;;;;;;;;12.27;58.84;102109.03;5064725;28;19924;-76
2022/05/09 04:00:32;;;;;;;;;;;;;;;12.28;58.65;102113.34;5087281;28;19924;-76
2022/05/09 04:02:57;;;;;;;;;;;;;;;12.07;58.67;102110.03;5085851;28;19928;-76
2022/05/09 04:05:23;;;;;;;;;;;;;;;12.11;59.18;102105.66;5088198;28;19920;-76
2022/05/09 04:07:52;;;;;;;;;;;;;;;12.22;59.08;102108.19;5075395;28;19927;-76
2022/05/09 04:10:20;;;;;;;;;;;;;;;12.18;59.11;102111.72;5086322;28;19924;-76
2022/05/09 04:12:45;;;;;;;;;;;;;;;12.17;59.13;102110.84;5082114;28;20344;-76
2022/05/09 04:17:54;;;;;;;;;;;;;;;12.12;59.18;102115.22;5089129;28;19982;-76
2022/05/09 04:20:20;;;;;;;;;;;;;;;12.20;59.26;102118.63;5089073;28;19959;-76
2022/05/09 04:22:46;;;;;;;;;;;;;;;12.06;59.49;102112.66;5090230;28;20411;-76
2022/05/09 04:25:12;;;;;;;;;;;;;;;12.03;59.12;102116.16;5089760;28;19924;-76
2022/05/09 04:27:37;;;;;;;;;;;;;;;12.09;59.28;102128.25;5085436;28;20065;-76
2022/05/09 04:30:03;;;;;;;;;;;;;;;12.16;58.85;102123.84;5087771;28;20387;-77
2022/05/09 04:32:28;;;;;;;;;;;;;;;12.22;59.03;102116.00;5091307;28;20400;-76
2022/05/09 04:34:54;;;;;;;;;;;;;;;12.07;59.88;102115.22;5098243;28;19921;-76
2022/05/09 04:37:19;;;;;;;;;;;;;;;12.10;59.03;102116.94;5089125;28;20006;-76
2022/05/09 04:39:45;;;;;;;;;;;;;;;12.13;59.25;102117.81;5088295;28;20391;-76
2022/05/09 04:42:11;;;;;;;;;;;;;;;12.16;59.49;102122.13;5082607;28;19962;-76
2022/05/09 04:44:37;;;;;;;;;;;;;;;12.24;58.88;102128.19;5073565;28;19920;-76
2022/05/09 04:47:02;;;;;;;;;;;;;;;12.13;59.51;102123.91;5051860;28;19939;-76
2022/05/09 04:49:27;;;;;;;;;;;;;;;12.22;59.41;102127.28;5086963;28;20528;-77
2022/05/09 04:51:53;;;;;;;;;;;;;;;12.12;59.73;102130.84;5066210;28;19924;-77
2022/05/09 04:54:18;;;;;;;;;;;;;;;12.15;59.73;102130.84;5064887;28;19931;-77
2022/05/09 04:56:43;;;;;;;;;;;;;;;12.13;59.94;102130.81;5089440;28;19962;-77
2022/05/09 04:59:08;;;;;;;;;;;;;;;12.17;60.26;102133.41;5088351;28;20054;-77
2022/05/09 05:01:34;;;;;;;;;;;;;;;12.19;59.99;102134.25;5088162;28;19935;-77
2022/05/09 05:04:00;;;;;;;;;;;;;;;12.08;61.05;102134.34;5087934;28;19934;-76
2022/05/09 05:06:25;;;;;;;;;;;;;;;12.11;60.79;102127.38;5084423;28;19919;-76
2022/05/09 05:08:50;;;;;;;;;;;;;;;12.23;60.38;102129.03;5079175;28;19928;-76
2022/05/09 05:11:16;;;;;;;;;;;;;;;12.32;60.39;102136.78;5087759;28;19935;-77
2022/05/09 05:13:41;;;;;;;;;;;;;;;12.33;60.78;102135.94;5080612;28;19923;-78
2022/05/09 05:16:06;;;;;;;;;;;;;;;12.26;60.83;102131.63;5068274;28;19950;-77
2022/05/09 05:18:32;;;;;;;;;;;;;;;12.26;60.84;102134.22;5080373;28;19931;-77
2022/05/09 05:20:58;;;;;;;;;;;;;;;12.22;60.35;102134.25;5085792;28;19916;-77
2022/05/09 05:23:24;;;;;;;;;;;;;;;12.43;60.42;102129.75;5095859;28;19916;-77
2022/05/09 05:25:49;;;;;;;;;;;;;;;12.31;60.94;102129.84;5090506;28;19924;-77
2022/05/09 05:28:15;;;;;;;;;;;;;;;12.34;60.90;102134.16;5085899;28;19924;-77
2022/05/09 05:30:41;;;;;;;;;;;;;;;12.42;60.72;102129.78;5083019;28;20083;-77
2022/05/09 05:33:06;;;;;;;;;;;;;;;12.25;60.78;102127.28;5079121;28;19955;-77
2022/05/09 05:35:32;;;;;;;;;;;;;;;12.34;60.88;102131.56;5083152;28;19920;-74
2022/05/09 05:37:58;;;;;;;;;;;;;;;12.32;61.72;102134.19;5085840;28;19924;-74
2022/05/09 05:40:23;;;;;;;;;;;;;;;12.43;61.93;102136.72;5081581;28;19920;-77
2022/05/09 05:42:49;;;;;;;;;;;;;;;12.38;62.36;102136.75;5082276;28;20027;-77
2022/05/09 05:45:15;;;;;;;;;;;;;;;12.39;62.10;102140.22;5079833;28;19928;-74
2022/05/09 05:47:41;;;;;;;;;;;;;;;12.38;62.29;102136.75;5084312;28;19943;-78
2022/05/09 05:50:08;;;;;;;;;;;;;;;12.44;62.74;102141.94;5077118;28;19924;-77
2022/05/09 05:52:33;;;;;;;;;;;;;;;12.26;63.41;102146.38;5080092;28;20356;-78
2022/05/09 05:54:58;;;;;;;;;;;;;;;12.31;63.40;102136.78;5082787;28;20001;-77
2022/05/09 05:57:25;;;;;;;;;;;;;;;12.32;63.67;102141.13;5083844;28;19924;-77
2022/05/09 05:59:58;;;;;;;;;;;;;;;12.32;63.20;102142.00;5091721;28;19924;-77
2022/05/09 06:02:24;;;;;;;;;;;;;;;12.53;62.93;102144.50;5086896;28;19924;-78
2022/05/09 06:04:50;;;;;;;;;;;;;;;12.64;62.75;102142.69;5089322;28;19977;-77
2022/05/09 06:07:18;;;;;;;;;;;;;;;12.60;62.78;102145.34;5090750;28;19935;-77
2022/05/09 06:09:44;;;;;;;;;;;;;;;12.60;61.93;102137.50;5099041;28;19958;-77
2022/05/09 06:12:10;;;;;;;;;;;;;;;12.57;62.32;102140.16;5100447;28;19954;-77
2022/05/09 06:14:36;;;;;;;;;;;;;;;12.67;61.94;102144.38;5101137;28;19923;-77
2022/05/09 06:17:03;;;;;;;;;;;;;;;12.63;62.56;102137.50;5100778;28;19970;-77
2022/05/09 06:19:29;;;;;;;;;;;;;;;12.75;61.75;102141.75;5086834;28;19963;-77
2022/05/09 06:21:55;;;;;;;;;;;;;;;12.74;61.87;102146.09;5080571;28;19970;-77
2022/05/09 06:24:20;;;;;;;;;;;;;;;12.72;62.12;102145.22;5068250;28;19924;-77
2022/05/09 06:26:46;;;;;;;;;;;;;;;12.73;61.97;102149.56;5103058;28;19965;-77
2022/05/09 06:29:11;;;;;;;;;;;;;;;12.69;62.70;102153.06;5075948;28;19927;-77
2022/05/09 06:31:37;;;;;;;;;;;;;;;12.59;61.63;102149.69;5093739;28;19924;-77
2022/05/09 06:34:03;;;;;;;;;;;;;;;12.74;61.35;102147.81;5093561;28;19920;-78
2022/05/09 06:36:35;;;;;;;;;;;;;;;12.81;61.50;102150.34;5066185;28;20022;-77
2022/05/09 06:39:01;;;;;;;;;;;;;;;12.85;61.85;102153.81;5095266;28;19926;-77
2022/05/09 06:41:26;;;;;;;;;;;;;;;12.96;60.74;102151.97;5072591;28;20551;-77
2022/05/09 06:43:51;;;;;;;;;;;;;;;13.06;60.47;102154.50;5100661;28;19927;-77
2022/05/09 06:46:17;;;;;;;;;;;;;;;12.94;61.01;102149.38;5089761;28;19924;-77
2022/05/09 06:48:42;;;;;;;;;;;;;;;12.85;60.86;102149.47;5091426;28;19920;-77
2022/05/09 06:51:07;;;;;;;;;;;;;;;12.86;60.64;102153.81;5086252;28;19931;-77
2022/05/09 06:53:33;;;;;;;;;;;;;;;12.94;59.53;102148.50;5106319;28;20367;-77
2022/05/09 06:55:58;;;;;;;;;;;;;;;12.93;60.56;102149.38;5093905;28;19929;-77
2022/05/09 06:58:25;;;;;;;;;;;;;;;13.05;60.24;102151.88;5082751;28;19920;-77
2022/05/09 07:00:52;;;;;;;;;;;;;;;12.91;59.99;102143.31;5077492;28;20008;-77
2022/05/09 07:03:18;;;;;;;;;;;;;;;13.04;60.15;102142.34;5090943;28;19934;-77
2022/05/09 07:05:45;;;;;;;;;;;;;;;12.98;60.33;102142.41;5089486;28;19917;-77
2022/05/09 07:08:10;;;;;;;;;;;;;;;13.08;60.58;102141.41;5090800;28;19930;-77
2022/05/09 07:10:36;;;;;;;;;;;;;;;12.97;60.51;102138.94;5087266;28;20409;-77
2022/05/09 07:13:04;;;;;;;;;;;;;;;13.07;60.92;102143.19;5087089;28;20602;-78
2022/05/09 07:15:30;;;;;;;;;;;;;;;13.06;60.35;102146.66;5089005;28;19920;-78
2022/05/09 07:17:55;;;;;;;;;;;;;;;13.02;60.68;102139.72;5084071;28;19916;-78
2022/05/09 07:20:22;;;;;;;;;;;;;;;13.04;60.54;102148.44;5091005;28;19946;-77
2022/05/09 07:22:48;;;;;;;;;;;;;;;13.12;60.42;102148.34;5088713;28;19943;-77
2022/05/09 07:25:14;;;;;;;;;;;;;;;13.12;60.67;102148.34;5098584;28;19924;-74
2022/05/09 07:27:42;;;;;;;;;;;;;;;13.13;60.55;102140.53;5092538;28;19920;-74
2022/05/09 07:30:08;;;;;;;;;;;;;;;13.18;61.17;102143.06;5088376;28;20339;-74
2022/05/09 07:32:34;;;;;;;;;;;;;;;13.20;60.79;102142.16;5105554;28;19920;-74
2022/05/09 07:34:59;;;;;;;;;;;;;;;13.25;60.52;102128.22;5109755;28;20269;-74
2022/05/09 07:37:26;;;;;;;;;;;;;;;13.32;60.24;102138.56;5089900;28;20054;-75
2022/05/09 07:39:51;;;;;;;;;;;;;;;13.40;59.79;102120.22;5089255;28;20338;-74
2022/05/09 07:42:17;;;;;;;;;;;;;;;13.46;60.11;102122.78;5095333;28;20015;-75
2022/05/09 07:44:42;;;;;;;;;;;;;;;13.46;60.23;102122.78;5094039;28;20438;-75
2022/05/09 07:47:09;;;;;;;;;;;;;;;13.46;60.33;102118.41;5077987;28;19955;-75
2022/05/09 07:49:34;;;;;;;;;;;;;;;13.59;59.92;102119.13;5068812;28;19924;-74
2022/05/09 07:51:59;;;;;;;;;;;;;;;13.61;59.57;102120.00;5086980;28;19931;-77
2022/05/09 07:54:25;;;;;;;;;;;;;;;13.61;60.74;102113.00;5090351;28;19924;-77
2022/05/09 07:56:50;;;;;;;;;;;;;;;13.65;59.52;102109.47;5089266;28;20414;-77
2022/05/09 07:59:17;;;;;;;;;;;;;;;13.63;59.68;102115.59;5088059;28;19924;-77
2022/05/09 08:01:43;;;;;;;;;;;;;;;13.72;59.39;102110.31;5092691;28;19920;-77
2022/05/09 08:04:08;;;;;;;;;;;;;;;13.71;59.38;102117.28;5088626;28;20066;-78
2022/05/09 08:06:33;;;;;;;;;;;;;;;13.79;59.33;102118.94;5072449;28;19920;-78
2022/05/09 08:09:00;;;;;;;;;;;;;;;13.86;57.81;102118.81;5100629;28;19991;-78
2022/05/09 08:11:25;;;;;;;;;;;;;;;13.86;58.17;102121.44;5103975;28;19916;-78
2022/05/09 08:13:51;;;;;;;;;;;;;;;13.86;59.22;102118.81;5087506;28;19934;-78
2022/05/09 08:16:16;;;;;;;;;;;;;;;13.90;58.98;102117.91;5088873;28;20011;-78
2022/05/09 08:18:41;;;;;;;;;;;;;;;13.90;59.07;102114.41;5068937;28;19950;-78
2022/05/09 08:21:09;;;;;;;;;;;;;;;13.93;58.76;102112.63;5079771;28;19926;-78
2022/05/09 08:23:35;;;;;;;;;;;;;;;13.93;60.37;102111.78;5078428;28;19912;-78
2022/05/09 08:26:03;;;;;;;;;;;;;;;14.07;59.15;102108.06;5104474;28;19926;-78
2022/05/09 08:28:28;;;;;;;;;;;;;;;14.00;58.58;102102.94;5088746;28;20454;-78
2022/05/09 08:30:54;;;;;;;;;;;;;;;14.02;59.91;102106.41;5065150;28;20022;-77
2022/05/09 08:33:21;;;;;;;;;;;;;;;14.08;59.60;102109.81;5095704;28;19923;-75
2022/05/09 08:35:48;;;;;;;;;;;;;;;14.11;59.70;102108.91;5107072;28;19915;-75
2022/05/09 08:38:13;;;;;;;;;;;;;;;14.22;58.54;102107.84;5097310;28;19926;-75
2022/05/09 08:40:39;;;;;;;;;;;;;;;14.12;60.52;102110.63;5085927;28;19924;-74
2022/05/09 08:43:11;;;;;;;;;;;;;;;14.23;60.04;102109.56;5082091;28;20564;-74
2022/05/09 08:45:37;;;;;;;;;;;;;;;14.25;60.11;102105.19;5085488;28;19928;-76
2022/05/09 08:48:05;;;;;;;;;;;;;;;14.29;59.75;102104.25;5085833;28;19916;-77
2022/05/09 08:50:49;;;;;;;;;;;;;;;14.34;59.29;102106.81;5087785;28;19919;-77
2022/05/09 08:53:22;;;;;;;;;;;;;;;14.36;59.34;102098.94;5067508;28;20877;-77
2022/05/09 08:55:48;;;;;;;;;;;;;;;14.44;59.34;102099.69;5073509;28;20411;-77
2022/05/09 08:58:19;;;;;;;;;;;;;;;14.45;59.10;102093.56;5069648;28;19939;-77
2022/05/09 09:00:46;;;;;;;;;;;;;;;14.52;58.51;102096.06;5088642;28;19962;-74
2022/05/09 09:03:31;;;;;;;;;;;;;;;14.56;58.40;102092.50;5068602;28;19924;-74
2022/05/09 09:06:02;;;;;;;;;;;;;;;14.66;59.09;102090.59;5087044;28;19927;-74
2022/05/09 09:08:28;;;;;;;;;;;;;;;14.64;59.08;102085.41;5069052;28;20269;-74
2022/05/09 09:11:05;;;;;;;;;;;;;;;14.61;59.80;102085.47;5086783;28;19927;-74
2022/05/09 09:13:49;;;;;;;;;;;;;;;14.66;59.02;102082.75;5086148;28;19920;-74
2022/05/09 09:16:20;;;;;;;;;;;;;;;14.72;58.90;102083.50;5096508;28;19985;-75
2022/05/09 09:18:49;;;;;;;;;;;;;;;14.76;58.86;102082.63;5090789;28;19928;-75
2022/05/09 09:21:20;;;;;;;;;;;;;;;14.76;60.25;102081.75;5090848;28;19947;-74
2022/05/09 09:24:11;;;;;;;;;;;;;;;14.75;59.47;102075.66;5088372;28;19917;-74
2022/05/09 09:26:45;;;;;;;;;;;;;;;14.80;58.71;102076.41;5084323;28;19928;-74
2022/05/09 09:29:14;;;;;;;;;;;;;;;14.83;58.72;102076.38;5089320;28;20381;-74
2022/05/09 09:31:54;;;;;;;;;;;;;;;14.90;59.07;102071.03;5093959;28;19931;-75
2022/05/09 09:34:21;;;;;;;;;;;;;;;14.84;57.75;102072.00;5092715;28;19931;-74
2022/05/09 09:36:50;;;;;;;;;;;;;;;14.86;59.59;102067.59;5097945;28;19920;-74
2022/05/09 09:39:19;;;;;;;;;;;;;;;15.00;59.28;102060.38;5090927;28;20036;-74
2022/05/09 09:41:50;;;;;;;;;;;;;;;14.98;56.99;102054.28;5079962;28;20396;-74
2022/05/09 09:44:20;;;;;;;;;;;;;;;14.90;57.10;102058.81;5084013;28;19928;-77
2022/05/09 09:47:04;;;;;;;;;;;;;;;15.06;58.95;102060.25;5092877;28;19927;-78
2022/05/09 09:49:30;;;;;;;;;;;;;;;14.87;57.84;102058.88;5089745;28;19924;-77
2022/05/09 09:51:57;;;;;;;;;;;;;;;14.94;60.39;102063.09;5069245;28;19927;-77
2022/05/09 09:54:32;;;;;;;;;;;;;;;14.98;59.07;102051.66;5072802;28;19955;-77
2022/05/09 09:57:14;;;;;;;;;;;;;;;14.91;58.93;102063.16;5086420;28;19924;-77
2022/05/09 09:59:39;;;;;;;;;;;;;;;14.96;57.12;102043.00;5074596;28;20343;-77
2022/05/09 10:02:08;;;;;;;;;;;;;;;14.92;57.67;102037.88;5097120;28;19923;-78
2022/05/09 10:04:33;;;;;;;;;;;;;;;15.08;59.43;102039.28;5097166;28;19982;-77
2022/05/09 10:07:10;;;;;;;;;;;;;;;14.98;59.13;102037.75;5103446;28;20599;-77
2022/05/09 10:10:05;;;;;;;;;;;;;;;14.86;57.07;102026.59;5095376;28;19924;-77
2022/05/09 10:12:31;;;;;;;;;;;;;;;15.04;57.05;102029.75;5089129;28;20393;-77
2022/05/09 10:14:56;;;;;;;;;;;;;;;14.94;59.27;102025.59;5090348;28;20327;-77
2022/05/09 10:17:28;;;;;;;;;;;;;;;14.87;58.82;102023.09;5107127;28;19969;-77
2022/05/09 10:19:57;;;;;;;;;;;;;;;14.88;56.36;102023.97;5090029;28;20317;-75
2022/05/09 10:25:14;;;;;;;;;;;;;;;14.91;57.61;102020.44;5086699;28;19931;-74
2022/05/09 10:27:40;;;;;;;;;;;;;;;15.00;58.35;102021.13;5077587;28;19931;-74
2022/05/09 10:30:32;;;;;;;;;;;;;;;14.94;59.06;102015.16;5092405;28;19923;-74
2022/05/09 10:32:59;;;;;;;;;;;;;;;14.98;58.27;102012.41;5091874;28;19916;-77
2022/05/09 10:35:28;;;;;;;;;;;;;;;15.16;59.47;102013.81;5089118;28;20081;-77
2022/05/09 10:38:12;;;;;;;;;;;;;;;14.95;57.89;102009.88;5090477;28;20065;-77
2022/05/09 10:40:46;;;;;;;;;;;;;;;14.89;57.13;102003.91;5089171;28;19924;-77
2022/05/09 10:43:14;;;;;;;;;;;;;;;15.23;58.14;102005.81;5079914;28;19924;-77
2022/05/09 10:45:44;;;;;;;;;;;;;;;15.20;58.96;102005.88;5095140;28;20327;-77
2022/05/09 10:48:26;;;;;;;;;;;;;;;15.08;56.98;101994.78;5090531;28;19978;-77
2022/05/09 10:51:18;;;;;;;;;;;;;;;15.20;56.77;101994.53;5069288;28;19919;-77
2022/05/09 10:53:48;;;;;;;;;;;;;;;15.02;56.61;101992.28;5083229;28;20461;-77
2022/05/09 10:56:18;;;;;;;;;;;;;;;15.09;56.94;101981.69;5074050;28;19969;-78
2022/05/09 10:58:59;;;;;;;;;;;;;;;15.17;58.57;101979.78;5093896;28;20015;-78
2022/05/09 11:01:43;;;;;;;;;;;;;;;15.17;56.46;101977.16;5086979;28;19930;-77
2022/05/09 11:04:10;;;;;;;;;;;;;;;15.30;57.31;101972.53;5074501;28;19924;-77
2022/05/09 11:06:46;;;;;;;;;;;;;;;15.39;56.71;101973.16;5089049;28;20006;-77
2022/05/09 11:09:14;;;;;;;;;;;;;;;15.34;57.53;101966.31;5089695;28;19916;-77
2022/05/09 11:11:54;;;;;;;;;;;;;;;15.53;55.96;101965.03;5086670;28;19920;-77
2022/05/09 11:14:40;;;;;;;;;;;;;;;15.39;56.67;101961.88;5090043;28;20120;-74
2022/05/09 11:17:08;;;;;;;;;;;;;;;15.48;57.05;101964.28;5087571;28;19924;-74
2022/05/09 11:19:33;;;;;;;;;;;;;;;15.16;55.69;101954.47;5079900;28;20010;-74
2022/05/09 11:22:02;;;;;;;;;;;;;;;15.28;56.11;101955.97;5095910;28;20456;-75
2022/05/09 11:24:47;;;;;;;;;;;;;;;15.29;56.50;101955.97;5098572;28;20434;-74
2022/05/09 11:27:24;;;;;;;;;;;;;;;15.21;55.06;101949.16;5086414;28;19928;-74
2022/05/09 11:29:59;;;;;;;;;;;;;;;15.19;56.87;101951.78;5091019;28;19912;-77
2022/05/09 11:32:36;;;;;;;;;;;;;;;15.18;57.22;101946.63;5097589;28;19920;-77
2022/05/09 11:35:02;;;;;;;;;;;;;;;15.21;57.46;101938.69;5088420;28;19931;-77
2022/05/09 11:37:46;;;;;;;;;;;;;;;15.10;56.99;101932.81;5090180;28;19920;-77
2022/05/09 11:40:21;;;;;;;;;;;;;;;15.10;55.93;101935.41;5094193;28;20345;-77
2022/05/09 11:45:50;;;;;;;;;;;;;;;15.49;55.18;101934.56;5088600;28;20643;-77
2022/05/09 11:48:31;;;;;;;;;;;;;;;15.36;55.02;101928.72;5087584;28;19928;-77
2022/05/09 11:51:03;;;;;;;;;;;;;;;15.65;55.21;101924.59;5087968;28;20377;-77
2022/05/09 11:53:34;;;;;;;;;;;;;;;15.41;55.32;101923.41;5086964;28;19928;-77
2022/05/09 11:56:05;;;;;;;;;;;;;;;15.65;54.58;101920.22;5066292;28;20404;-77
2022/05/09 11:58:33;;;;;;;;;;;;;;;15.38;54.31;101921.72;5094658;28;19928;-77
2022/05/09 12:00:58;;;;;;;;;;;;;;;15.28;55.26;101922.81;5074888;28;19959;-77
2022/05/09 12:03:38;;;;;;;;;;;;;;;15.53;55.23;101915.25;5099070;28;19986;-77
2022/05/09 12:06:04;;;;;;;;;;;;;;;15.43;54.76;101909.38;5089384;28;19920;-74
2022/05/09 12:08:43;;;;;;;;;;;;;;;15.56;55.54;101911.72;5090112;28;20315;-74
2022/05/09 12:11:15;;;;;;;;;;;;;;;15.39;54.83;101904.25;5093352;28;20007;-74
2022/05/09 12:13:40;;;;;;;;;;;;;;;15.39;56.01;101899.84;5092806;28;19927;-74
2022/05/09 12:16:08;;;;;;;;;;;;;;;15.65;54.32;101896.66;5090967;28;19924;-75
2022/05/09 12:18:52;;;;;;;;;;;;;;;15.46;55.13;101897.09;5087405;28;19928;-74
2022/05/09 12:21:22;;;;;;;;;;;;;;;15.76;53.71;101896.41;5097684;28;19927;-74
2022/05/09 12:23:48;;;;;;;;;;;;;;;15.74;53.83;101895.56;5088859;28;19915;-74
2022/05/09 12:26:30;;;;;;;;;;;;;;;15.46;54.34;101886.63;5078809;28;19954;-74
2022/05/09 12:29:07;;;;;;;;;;;;;;;15.79;53.27;101885.84;5094328;28;20018;-77
2022/05/09 12:31:53;;;;;;;;;;;;;;;15.53;53.62;101889.06;5083938;28;21579;-77
2022/05/09 12:34:22;;;;;;;;;;;;;;;15.44;54.09;101878.81;5062794;28;19931;-77
2022/05/09 12:36:48;;;;;;;;;;;;;;;15.90;52.04;101879.44;5087871;28;20401;-77
2022/05/09 12:39:13;;;;;;;;;;;;;;;15.53;54.02;101875.13;5087785;28;19955;-77
2022/05/09 12:41:45;;;;;;;;;;;;;;;15.39;53.98;101872.84;5084641;28;20407;-77
2022/05/09 12:44:20;;;;;;;;;;;;;;;15.35;54.30;101871.19;5083792;28;20376;-77
2022/05/09 12:46:56;;;;;;;;;;;;;;;15.50;53.82;101873.44;5081794;28;19920;-78
2022/05/09 12:49:24;;;;;;;;;;;;;;;15.49;54.34;101865.59;5099644;28;20014;-78
2022/05/09 12:51:53;;;;;;;;;;;;;;;15.46;54.01;101861.31;5092382;28;19920;-78